Ber Learned — 2GNG3 — position and weather

sailwx.info

Track history (hours):
 
Tides and Currents Weather Stations Pressure Air Temp Water Temp Dewpoint Dewpoint Depression Visibility Wind Speed Wind Dir Waves Ship Positions

Ber Learned

Last reported at 2018-Jun-06 09:20 UTC. Time now 2018-Jun-18 17:09 UTC.
Position N 23°50' E 119°60'.
Warning: this ship's position is 12 days out of date.

Length 335 m; draft 12.3 m.

Type: Cargo ship. MMSI: 235077639.

Date/timePositionNaut miles runAvg speedWind from/ knotsBaromVisibWave heightAir tempDewpointWater temp
2018-Jun-06 09:20N 23°50' E 119°60'719.5
2018-Jun-06 08:57N 23°43' E 119°57'5220.1
2018-Jun-06 06:24N 22°52' E 119°60'719.0
2018-Jun-06 06:00N 22°45' E 120°04'918.5
2018-Jun-06 05:30N 22°37' E 120°09'714.1
2018-Jun-06 05:00N 22°33' E 120°14'4 8.7
2018-Jun-06 04:30N 22°33' E 120°19'0 0.4
2018-Jun-06 03:57N 22°33' E 120°19'0 0.0
2018-Jun-06 03:28N 22°33' E 120°19'0 0.0
2018-Jun-06 02:57N 22°33' E 120°19'0 0.0
2018-Jun-06 02:22N 22°33' E 120°19'0 0.0
2018-Jun-06 01:57N 22°33' E 120°19'0 0.0
2018-Jun-06 01:21N 22°33' E 120°19'0 0.0
2018-Jun-06 00:57N 22°33' E 120°19'0 0.0
2018-Jun-06 00:28N 22°33' E 120°19'0 0.0
2018-Jun-05 23:57N 22°33' E 120°19'0 0.0
2018-Jun-05 23:21N 22°33' E 120°19'0 0.0
2018-Jun-05 22:45N 22°33' E 120°19'0 0.0
2018-Jun-05 22:27N 22°33' E 120°19'0 0.0
2018-Jun-05 21:57N 22°33' E 120°19'0 0.0
2018-Jun-05 21:27N 22°33' E 120°19'0 0.0
2018-Jun-05 20:57N 22°33' E 120°19'0 0.0
2018-Jun-05 20:16N 22°33' E 120°19'0 0.0
2018-Jun-05 19:57N 22°33' E 120°19'0 0.0
2018-Jun-05 19:28N 22°33' E 120°19'0 0.0
2018-Jun-05 18:39N 22°33' E 120°19'0 0.0
2018-Jun-05 18:27N 22°33' E 120°19'0 0.0
2018-Jun-05 17:45N 22°33' E 120°19'0 0.0
2018-Jun-05 17:21N 22°33' E 120°19'0 0.0
2018-Jun-05 16:51N 22°33' E 120°19'0 0.0
2018-Jun-05 16:27N 22°33' E 120°19'0 0.0
2018-Jun-05 15:58N 22°33' E 120°19'0 0.0
2018-Jun-05 15:27N 22°33' E 120°19'0 0.0
2018-Jun-05 14:57N 22°33' E 120°19'0 0.0
2018-Jun-05 14:27N 22°33' E 120°19'0 0.0
2018-Jun-05 13:57N 22°33' E 120°19'0 0.0
2018-Jun-05 13:27N 22°33' E 120°19'0 0.0
2018-Jun-05 12:46N 22°33' E 120°19'0 0.0
2018-Jun-05 11:03N 22°33' E 120°19'0 0.1
2018-Jun-05 10:57N 22°33' E 120°19'0 0.0
2018-Jun-05 10:27N 22°33' E 120°19'0 0.0
2018-Jun-05 09:57N 22°33' E 120°19'0 0.0
2018-Jun-05 09:28N 22°33' E 120°19'0 0.0
2018-Jun-05 08:57N 22°33' E 120°19'0 0.0
2018-Jun-05 08:21N 22°33' E 120°19'0 0.0
2018-Jun-05 07:51N 22°33' E 120°19'0 0.0
2018-Jun-05 07:27N 22°33' E 120°19'0 0.0
2018-Jun-05 06:57N 22°33' E 120°19'0 0.1
2018-Jun-05 06:28N 22°33' E 120°19'2 3.6
2018-Jun-05 06:00N 22°33' E 120°17'2 3.7
2018-Jun-05 05:30N 22°32' E 120°15'2 4.8
2018-Jun-05 05:00N 22°32' E 120°13'612.8
2018-Jun-05 04:30N 22°31' E 120°06'714.6
2018-Jun-05 04:00N 22°30' E 119°58'815.4
2018-Jun-05 03:30N 22°30' E 119°50'714.9
2018-Jun-05 03:00N 22°31' E 119°42'712.3
2018-Jun-05 02:27N 22°29' E 119°35'303 5.9
2018-Jun-02 23:04N 22°20' E 114°07'0 0.7
2018-Jun-02 23:01N 22°20' E 114°07'0 0.0
2018-Jun-02 00:58N 22°20' E 114°08'21211.4
2018-Jun-01 06:19N 23°15' E 117°50'815.0
2018-Jun-01 05:46N 23°20' E 117°57'1314.3
2018-Jun-01 04:52N 23°31' E 118°05'1914.1
2018-Jun-01 03:31N 23°48' E 118°13'015.0
2018-Jun-01 03:30N 23°48' E 118°14'813.9
2018-Jun-01 02:56N 23°55' E 118°17'613.7
2018-Jun-01 02:30N 24°00' E 118°20'713.5
2018-Jun-01 02:00N 24°07' E 118°20'612.8
2018-Jun-01 01:31N 24°13' E 118°17'713.5
2018-Jun-01 01:01N 24°18' E 118°12'713.0
2018-Jun-01 00:30N 24°23' E 118°07'611.7
2018-Jun-01 00:00N 24°26' E 118°02'4 7.5
2018-May-31 23:30N 24°27' E 117°58'0 0.1
2018-May-31 22:38N 24°27' E 117°58'0 0.0
2018-May-31 22:26N 24°27' E 117°58'0 0.0
2018-May-31 21:50N 24°27' E 117°58'0 0.0
2018-May-31 21:26N 24°27' E 117°58'0 0.0
2018-May-31 20:56N 24°27' E 117°58'0 0.0
2018-May-31 20:08N 24°27' E 117°58'0 0.0
2018-May-31 19:56N 24°27' E 117°58'0 0.0
2018-May-31 19:26N 24°27' E 117°58'0 0.0
2018-May-31 18:56N 24°27' E 117°58'0 0.0
2018-May-31 18:26N 24°27' E 117°58'0 0.0
2018-May-31 17:56N 24°27' E 117°58'0 0.0
2018-May-31 17:26N 24°27' E 117°58'0 0.1
2018-May-31 16:56N 24°27' E 117°58'0 0.1
2018-May-31 16:20N 24°27' E 117°58'0 0.0
2018-May-31 15:56N 24°27' E 117°58'0 0.0
2018-May-31 15:26N 24°27' E 117°58'0 0.1
2018-May-31 14:56N 24°27' E 117°58'0 0.1
2018-May-31 14:14N 24°27' E 117°58'0 0.0
2018-May-31 13:56N 24°27' E 117°58'0 0.0
2018-May-31 13:02N 24°27' E 117°58'0 0.0
2018-May-31 12:38N 24°27' E 117°58'0 0.1
2018-May-31 12:14N 24°27' E 117°58'0 0.0
2018-May-31 11:50N 24°27' E 117°58'0 0.1
2018-May-31 11:20N 24°27' E 117°58'0 0.0
2018-May-31 10:50N 24°27' E 117°58'0 0.0
2018-May-31 10:26N 24°27' E 117°58'0 0.0
2018-May-31 09:50N 24°27' E 117°58'0 0.0
2018-May-31 09:14N 24°27' E 117°58'0 0.0
2018-May-31 08:56N 24°27' E 117°58'0 0.1
2018-May-31 08:26N 24°27' E 117°58'0 0.1
2018-May-31 07:50N 24°27' E 117°58'0 0.0
2018-May-31 07:20N 24°27' E 117°58'0 0.0
2018-May-31 06:56N 24°27' E 117°58'0 0.0
2018-May-31 06:20N 24°27' E 117°58'0 0.0
2018-May-31 05:50N 24°27' E 117°58'0 0.0
2018-May-31 05:26N 24°27' E 117°58'0 0.5
2018-May-31 05:01N 24°27' E 117°58'4 7.2
2018-May-31 04:30N 24°26' E 118°02'612.8
2018-May-31 04:00N 24°22' E 118°08'713.3
2018-May-31 03:30N 24°18' E 118°13'815.0
2018-May-31 03:00N 24°12' E 118°18'714.0
2018-May-31 02:29N 24°05' E 118°20'  
Track history (hours):
 
Tides and Currents Weather Stations Pressure Air Temp Water Temp Dewpoint Dewpoint Depression Visibility Wind Speed Wind Dir Waves Ship Positions

Ber Learned

Last reported at 2018-Jun-06 09:20 UTC. Time now 2018-Jun-18 17:09 UTC.
Position N 23°50' E 119°60'.
Warning: this ship's position is 12 days out of date.

Length 335 m; draft 12.3 m.

Type: Cargo ship. MMSI: 235077639.

Date/timePositionNaut miles runAvg speedWind from/ knotsBaromVisibWave heightAir tempDewpointWater temp
2018-Jun-06 09:20N 23°50' E 119°60'719.5
2018-Jun-06 08:57N 23°43' E 119°57'5220.1
2018-Jun-06 06:24N 22°52' E 119°60'719.0
2018-Jun-06 06:00N 22°45' E 120°04'918.5
2018-Jun-06 05:30N 22°37' E 120°09'714.1
2018-Jun-06 05:00N 22°33' E 120°14'4 8.7
2018-Jun-06 04:30N 22°33' E 120°19'0 0.4
2018-Jun-06 03:57N 22°33' E 120°19'0 0.0
2018-Jun-06 03:28N 22°33' E 120°19'0 0.0
2018-Jun-06 02:57N 22°33' E 120°19'0 0.0
2018-Jun-06 02:22N 22°33' E 120°19'0 0.0
2018-Jun-06 01:57N 22°33' E 120°19'0 0.0
2018-Jun-06 01:21N 22°33' E 120°19'0 0.0
2018-Jun-06 00:57N 22°33' E 120°19'0 0.0
2018-Jun-06 00:28N 22°33' E 120°19'0 0.0
2018-Jun-05 23:57N 22°33' E 120°19'0 0.0
2018-Jun-05 23:21N 22°33' E 120°19'0 0.0
2018-Jun-05 22:45N 22°33' E 120°19'0 0.0
2018-Jun-05 22:27N 22°33' E 120°19'0 0.0
2018-Jun-05 21:57N 22°33' E 120°19'0 0.0
2018-Jun-05 21:27N 22°33' E 120°19'0 0.0
2018-Jun-05 20:57N 22°33' E 120°19'0 0.0
2018-Jun-05 20:16N 22°33' E 120°19'0 0.0
2018-Jun-05 19:57N 22°33' E 120°19'0 0.0
2018-Jun-05 19:28N 22°33' E 120°19'0 0.0
2018-Jun-05 18:39N 22°33' E 120°19'0 0.0
2018-Jun-05 18:27N 22°33' E 120°19'0 0.0
2018-Jun-05 17:45N 22°33' E 120°19'0 0.0
2018-Jun-05 17:21N 22°33' E 120°19'0 0.0
2018-Jun-05 16:51N 22°33' E 120°19'0 0.0
2018-Jun-05 16:27N 22°33' E 120°19'0 0.0
2018-Jun-05 15:58N 22°33' E 120°19'0 0.0
2018-Jun-05 15:27N 22°33' E 120°19'0 0.0
2018-Jun-05 14:57N 22°33' E 120°19'0 0.0
2018-Jun-05 14:27N 22°33' E 120°19'0 0.0
2018-Jun-05 13:57N 22°33' E 120°19'0 0.0
2018-Jun-05 13:27N 22°33' E 120°19'0 0.0
2018-Jun-05 12:46N 22°33' E 120°19'0 0.0
2018-Jun-05 11:03N 22°33' E 120°19'0 0.1
2018-Jun-05 10:57N 22°33' E 120°19'0 0.0
2018-Jun-05 10:27N 22°33' E 120°19'0 0.0
2018-Jun-05 09:57N 22°33' E 120°19'0 0.0
2018-Jun-05 09:28N 22°33' E 120°19'0 0.0
2018-Jun-05 08:57N 22°33' E 120°19'0 0.0
2018-Jun-05 08:21N 22°33' E 120°19'0 0.0
2018-Jun-05 07:51N 22°33' E 120°19'0 0.0
2018-Jun-05 07:27N 22°33' E 120°19'0 0.0
2018-Jun-05 06:57N 22°33' E 120°19'0 0.1
2018-Jun-05 06:28N 22°33' E 120°19'2 3.6
2018-Jun-05 06:00N 22°33' E 120°17'2 3.7
2018-Jun-05 05:30N 22°32' E 120°15'2 4.8
2018-Jun-05 05:00N 22°32' E 120°13'612.8
2018-Jun-05 04:30N 22°31' E 120°06'714.6
2018-Jun-05 04:00N 22°30' E 119°58'815.4
2018-Jun-05 03:30N 22°30' E 119°50'714.9
2018-Jun-05 03:00N 22°31' E 119°42'712.3
2018-Jun-05 02:27N 22°29' E 119°35'303 5.9
2018-Jun-02 23:04N 22°20' E 114°07'0 0.7
2018-Jun-02 23:01N 22°20' E 114°07'0 0.0
2018-Jun-02 00:58N 22°20' E 114°08'21211.4
2018-Jun-01 06:19N 23°15' E 117°50'815.0
2018-Jun-01 05:46N 23°20' E 117°57'1314.3
2018-Jun-01 04:52N 23°31' E 118°05'1914.1
2018-Jun-01 03:31N 23°48' E 118°13'015.0
2018-Jun-01 03:30N 23°48' E 118°14'813.9
2018-Jun-01 02:56N 23°55' E 118°17'613.7
2018-Jun-01 02:30N 24°00' E 118°20'713.5
2018-Jun-01 02:00N 24°07' E 118°20'612.8
2018-Jun-01 01:31N 24°13' E 118°17'713.5
2018-Jun-01 01:01N 24°18' E 118°12'713.0
2018-Jun-01 00:30N 24°23' E 118°07'611.7
2018-Jun-01 00:00N 24°26' E 118°02'4 7.5
2018-May-31 23:30N 24°27' E 117°58'0 0.1
2018-May-31 22:38N 24°27' E 117°58'0 0.0
2018-May-31 22:26N 24°27' E 117°58'0 0.0
2018-May-31 21:50N 24°27' E 117°58'0 0.0
2018-May-31 21:26N 24°27' E 117°58'0 0.0
2018-May-31 20:56N 24°27' E 117°58'0 0.0
2018-May-31 20:08N 24°27' E 117°58'0 0.0
2018-May-31 19:56N 24°27' E 117°58'0 0.0
2018-May-31 19:26N 24°27' E 117°58'0 0.0
2018-May-31 18:56N 24°27' E 117°58'0 0.0
2018-May-31 18:26N 24°27' E 117°58'0 0.0
2018-May-31 17:56N 24°27' E 117°58'0 0.0
2018-May-31 17:26N 24°27' E 117°58'0 0.1
2018-May-31 16:56N 24°27' E 117°58'0 0.1
2018-May-31 16:20N 24°27' E 117°58'0 0.0
2018-May-31 15:56N 24°27' E 117°58'0 0.0
2018-May-31 15:26N 24°27' E 117°58'0 0.1
2018-May-31 14:56N 24°27' E 117°58'0 0.1
2018-May-31 14:14N 24°27' E 117°58'0 0.0
2018-May-31 13:56N 24°27' E 117°58'0 0.0
2018-May-31 13:02N 24°27' E 117°58'0 0.0
2018-May-31 12:38N 24°27' E 117°58'0 0.1
2018-May-31 12:14N 24°27' E 117°58'0 0.0
2018-May-31 11:50N 24°27' E 117°58'0 0.1
2018-May-31 11:20N 24°27' E 117°58'0 0.0
2018-May-31 10:50N 24°27' E 117°58'0 0.0
2018-May-31 10:26N 24°27' E 117°58'0 0.0
2018-May-31 09:50N 24°27' E 117°58'0 0.0
2018-May-31 09:14N 24°27' E 117°58'0 0.0
2018-May-31 08:56N 24°27' E 117°58'0 0.1
2018-May-31 08:26N 24°27' E 117°58'0 0.1
2018-May-31 07:50N 24°27' E 117°58'0 0.0
2018-May-31 07:20N 24°27' E 117°58'0 0.0
2018-May-31 06:56N 24°27' E 117°58'0 0.0
2018-May-31 06:20N 24°27' E 117°58'0 0.0
2018-May-31 05:50N 24°27' E 117°58'0 0.0
2018-May-31 05:26N 24°27' E 117°58'0 0.5
2018-May-31 05:01N 24°27' E 117°58'4 7.2
2018-May-31 04:30N 24°26' E 118°02'612.8
2018-May-31 04:00N 24°22' E 118°08'713.3
2018-May-31 03:30N 24°18' E 118°13'815.0
2018-May-31 03:00N 24°12' E 118°18'714.0
2018-May-31 02:29N 24°05' E 118°20'  

Dump ship's entire track history